sensor_id;sensor_type;location;lat;lon;timestamp;pressure;altitude;pressure_sealevel;temperature;humidity
12775;BME280;6451;42.630;23.382;2023-04-21T00:00:57;93974.09;;;16.26;67.55
12775;BME280;6451;42.630;23.382;2023-04-21T00:03:25;93916.91;;;15.60;67.94
12775;BME280;6451;42.630;23.382;2023-04-21T00:05:54;93954.53;;;15.95;67.60
12775;BME280;6451;42.630;23.382;2023-04-21T00:08:23;93961.94;;;16.09;67.08
12775;BME280;6451;42.630;23.382;2023-04-21T00:10:51;93929.47;;;15.75;67.76
12775;BME280;6451;42.630;23.382;2023-04-21T00:13:19;93959.59;;;15.82;68.07
12775;BME280;6451;42.630;23.382;2023-04-21T00:15:46;93957.25;;;16.24;67.47
12775;BME280;6451;42.630;23.382;2023-04-21T00:18:13;93952.97;;;16.12;67.16
12775;BME280;6451;42.630;23.382;2023-04-21T00:20:40;93952.56;;;16.17;66.51
12775;BME280;6451;42.630;23.382;2023-04-21T00:23:07;93933.00;;;16.15;66.20
12775;BME280;6451;42.630;23.382;2023-04-21T00:25:35;93960.00;;;16.31;67.04
12775;BME280;6451;42.630;23.382;2023-04-21T00:28:02;93960.41;;;16.22;66.38
12775;BME280;6451;42.630;23.382;2023-04-21T00:30:31;93953.75;;;16.27;66.53
12775;BME280;6451;42.630;23.382;2023-04-21T00:32:58;93934.19;;;16.21;66.55
12775;BME280;6451;42.630;23.382;2023-04-21T00:35:25;93972.47;;;15.78;68.99
12775;BME280;6451;42.630;23.382;2023-04-21T00:37:53;93979.53;;;15.90;69.18
12775;BME280;6451;42.630;23.382;2023-04-21T00:40:20;93968.22;;;16.13;68.68
12775;BME280;6451;42.630;23.382;2023-04-21T00:42:47;93944.97;;;15.32;71.40
12775;BME280;6451;42.630;23.382;2023-04-21T00:45:14;93969.31;;;15.66;72.19
12775;BME280;6451;42.630;23.382;2023-04-21T00:47:42;93962.28;;;15.65;72.62
12775;BME280;6451;42.630;23.382;2023-04-21T00:50:10;93954.00;;;15.43;73.89
12775;BME280;6451;42.630;23.382;2023-04-21T00:52:43;93951.69;;;15.52;73.80
12775;BME280;6451;42.630;23.382;2023-04-21T00:55:13;93953.25;;;15.61;74.29
12775;BME280;6451;42.630;23.382;2023-04-21T00:57:40;93956.75;;;15.50;74.69
12775;BME280;6451;42.630;23.382;2023-04-21T01:00:09;93897.56;;;14.85;75.26
12775;BME280;6451;42.630;23.382;2023-04-21T01:02:38;93958.25;;;15.26;75.62
12775;BME280;6451;42.630;23.382;2023-04-21T01:05:07;93956.69;;;15.29;75.93
12775;BME280;6451;42.630;23.382;2023-04-21T01:07:36;93939.06;;;15.12;76.35
12775;BME280;6451;42.630;23.382;2023-04-21T01:10:03;93960.28;;;14.71;79.10
12775;BME280;6451;42.630;23.382;2023-04-21T01:12:31;93943.59;;;14.83;78.78
12775;BME280;6451;42.630;23.382;2023-04-21T01:14:57;93932.94;;;14.05;81.91
12775;BME280;6451;42.630;23.382;2023-04-21T01:17:25;93945.41;;;14.10;82.35
12775;BME280;6451;42.630;23.382;2023-04-21T01:19:55;93939.88;;;13.99;83.09
12775;BME280;6451;42.630;23.382;2023-04-21T01:22:23;93960.38;;;13.42;88.29
12775;BME280;6451;42.630;23.382;2023-04-21T01:24:51;93882.25;;;13.56;91.93
12775;BME280;6451;42.630;23.382;2023-04-21T01:27:19;93949.81;;;14.22;91.45
12775;BME280;6451;42.630;23.382;2023-04-21T01:29:49;93953.25;;;14.15;89.45
12775;BME280;6451;42.630;23.382;2023-04-21T01:32:20;93951.41;;;14.26;86.22
12775;BME280;6451;42.630;23.382;2023-04-21T01:34:48;93915.41;;;14.06;83.61
12775;BME280;6451;42.630;23.382;2023-04-21T01:37:17;93949.75;;;14.66;80.83
12775;BME280;6451;42.630;23.382;2023-04-21T01:39:48;93945.44;;;14.61;80.35
12775;BME280;6451;42.630;23.382;2023-04-21T01:42:16;93905.28;;;14.10;79.91
12775;BME280;6451;42.630;23.382;2023-04-21T01:44:43;93950.59;;;14.77;78.58
12775;BME280;6451;42.630;23.382;2023-04-21T01:47:11;93910.78;;;14.72;79.16
12775;BME280;6451;42.630;23.382;2023-04-21T01:49:38;93935.38;;;14.80;80.44
12775;BME280;6451;42.630;23.382;2023-04-21T01:52:05;93929.00;;;14.51;83.13
12775;BME280;6451;42.630;23.382;2023-04-21T01:54:32;93950.44;;;14.56;84.00
12775;BME280;6451;42.630;23.382;2023-04-21T01:57:01;93943.63;;;14.28;85.79
12775;BME280;6451;42.630;23.382;2023-04-21T01:59:28;93942.72;;;14.65;83.28
12775;BME280;6451;42.630;23.382;2023-04-21T02:01:55;93936.09;;;14.69;81.77
12775;BME280;6451;42.630;23.382;2023-04-21T02:04:23;93923.75;;;14.97;80.76
12775;BME280;6451;42.630;23.382;2023-04-21T02:06:52;93931.94;;;14.93;80.62
12775;BME280;6451;42.630;23.382;2023-04-21T02:09:20;93944.88;;;15.04;79.08
12775;BME280;6451;42.630;23.382;2023-04-21T02:11:47;93942.63;;;15.27;78.02
12775;BME280;6451;42.630;23.382;2023-04-21T02:14:15;93935.47;;;14.97;76.63
12775;BME280;6451;42.630;23.382;2023-04-21T02:16:42;93934.00;;;15.25;75.52
12775;BME280;6451;42.630;23.382;2023-04-21T02:19:10;93927.63;;;14.89;76.32
12775;BME280;6451;42.630;23.382;2023-04-21T02:21:37;93886.47;;;14.50;75.16
12775;BME280;6451;42.630;23.382;2023-04-21T02:24:05;93931.16;;;14.93;75.20
12775;BME280;6451;42.630;23.382;2023-04-21T02:26:32;93935.47;;;14.97;74.08
12775;BME280;6451;42.630;23.382;2023-04-21T02:29:01;93935.16;;;15.13;74.19
12775;BME280;6451;42.630;23.382;2023-04-21T02:31:30;93938.94;;;14.91;74.37
12775;BME280;6451;42.630;23.382;2023-04-21T02:33:57;93926.88;;;15.02;74.33
12775;BME280;6451;42.630;23.382;2023-04-21T02:36:25;93935.00;;;14.85;74.47
12775;BME280;6451;42.630;23.382;2023-04-21T02:38:52;93917.06;;;14.80;74.49
12775;BME280;6451;42.630;23.382;2023-04-21T02:41:19;93920.19;;;14.86;74.46
12775;BME280;6451;42.630;23.382;2023-04-21T02:43:46;93923.06;;;15.21;74.04
12775;BME280;6451;42.630;23.382;2023-04-21T02:46:13;93932.81;;;15.15;74.29
12775;BME280;6451;42.630;23.382;2023-04-21T02:48:42;93887.06;;;15.01;74.35
12775;BME280;6451;42.630;23.382;2023-04-21T02:51:11;93939.06;;;15.16;74.49
12775;BME280;6451;42.630;23.382;2023-04-21T02:53:38;93923.47;;;15.23;74.56
12775;BME280;6451;42.630;23.382;2023-04-21T02:56:05;93935.16;;;15.17;75.06
12775;BME280;6451;42.630;23.382;2023-04-21T02:58:40;93897.56;;;14.85;75.04
12775;BME280;6451;42.630;23.382;2023-04-21T03:01:11;93941.28;;;14.89;75.93
12775;BME280;6451;42.630;23.382;2023-04-21T03:03:38;93868.97;;;14.58;75.98
12775;BME280;6451;42.630;23.382;2023-04-21T03:06:06;93928.88;;;15.06;76.50
12775;BME280;6451;42.630;23.382;2023-04-21T03:08:33;93935.53;;;15.12;75.91
12775;BME280;6451;42.630;23.382;2023-04-21T03:11:00;93936.03;;;15.46;75.18
12775;BME280;6451;42.630;23.382;2023-04-21T03:13:27;93936.38;;;15.30;76.06
12775;BME280;6451;42.630;23.382;2023-04-21T03:15:55;93907.56;;;15.61;73.70
12775;BME280;6451;42.630;23.382;2023-04-21T03:18:24;93934.41;;;15.30;76.53
12775;BME280;6451;42.630;23.382;2023-04-21T03:20:58;93940.53;;;14.95;76.78
12775;BME280;6451;42.630;23.382;2023-04-21T03:23:29;93943.47;;;15.56;74.79
12775;BME280;6451;42.630;23.382;2023-04-21T03:25:56;93930.94;;;15.34;74.93
12775;BME280;6451;42.630;23.382;2023-04-21T03:28:24;93946.53;;;15.33;75.48
12775;BME280;6451;42.630;23.382;2023-04-21T03:30:51;93901.53;;;14.98;74.89
12775;BME280;6451;42.630;23.382;2023-04-21T03:33:21;93951.16;;;15.15;74.57
12775;BME280;6451;42.630;23.382;2023-04-21T03:35:48;93946.09;;;15.20;75.65
12775;BME280;6451;42.630;23.382;2023-04-21T03:38:15;93954.09;;;15.65;74.41
12775;BME280;6451;42.630;23.382;2023-04-21T03:40:44;93954.84;;;15.62;75.32
12775;BME280;6451;42.630;23.382;2023-04-21T03:43:11;93955.44;;;15.12;78.50
12775;BME280;6451;42.630;23.382;2023-04-21T03:45:38;93958.00;;;14.73;80.49
12775;BME280;6451;42.630;23.382;2023-04-21T03:48:05;93926.34;;;14.68;81.07
12775;BME280;6451;42.630;23.382;2023-04-21T03:50:34;93916.75;;;14.99;80.40
12775;BME280;6451;42.630;23.382;2023-04-21T03:53:02;93958.22;;;15.23;80.42
12775;BME280;6451;42.630;23.382;2023-04-21T03:55:31;93937.00;;;14.95;81.24
12775;BME280;6451;42.630;23.382;2023-04-21T03:58:01;93960.41;;;14.92;82.30
12775;BME280;6451;42.630;23.382;2023-04-21T04:00:28;93948.25;;;14.76;82.82
12775;BME280;6451;42.630;23.382;2023-04-21T04:02:56;93960.59;;;14.52;83.96
12775;BME280;6451;42.630;23.382;2023-04-21T04:05:23;93975.69;;;14.42;82.19
12775;BME280;6451;42.630;23.382;2023-04-21T04:07:50;93970.94;;;14.90;81.95
12775;BME280;6451;42.630;23.382;2023-04-21T04:10:18;93958.78;;;14.73;82.94
12775;BME280;6451;42.630;23.382;2023-04-21T04:12:45;93954.25;;;14.44;83.27
12775;BME280;6451;42.630;23.382;2023-04-21T04:15:15;93988.31;;;14.57;85.36
12775;BME280;6451;42.630;23.382;2023-04-21T04:17:42;93980.72;;;14.40;85.80
12775;BME280;6451;42.630;23.382;2023-04-21T04:20:09;93976.22;;;14.58;86.33
12775;BME280;6451;42.630;23.382;2023-04-21T04:22:37;93982.97;;;14.75;87.51
12775;BME280;6451;42.630;23.382;2023-04-21T04:25:06;93967.88;;;15.02;90.71
12775;BME280;6451;42.630;23.382;2023-04-21T04:27:34;93994.59;;;15.38;89.18
12775;BME280;6451;42.630;23.382;2023-04-21T04:30:01;93996.41;;;15.05;81.88
12775;BME280;6451;42.630;23.382;2023-04-21T04:32:30;93992.22;;;15.29;81.83
12775;BME280;6451;42.630;23.382;2023-04-21T04:34:58;93996.69;;;15.66;80.60
12775;BME280;6451;42.630;23.382;2023-04-21T04:37:26;93982.91;;;15.48;77.91
12775;BME280;6451;42.630;23.382;2023-04-21T04:39:54;93999.94;;;15.13;78.84
12775;BME280;6451;42.630;23.382;2023-04-21T04:42:21;94006.09;;;15.86;76.25
12775;BME280;6451;42.630;23.382;2023-04-21T04:44:52;93963.97;;;14.96;76.63
12775;BME280;6451;42.630;23.382;2023-04-21T04:47:19;94005.19;;;15.53;75.63
12775;BME280;6451;42.630;23.382;2023-04-21T04:49:47;94004.53;;;15.81;74.46
12775;BME280;6451;42.630;23.382;2023-04-21T04:52:14;93999.47;;;16.01;73.60
12775;BME280;6451;42.630;23.382;2023-04-21T04:54:41;94010.00;;;15.85;74.42
12775;BME280;6451;42.630;23.382;2023-04-21T04:57:08;94015.88;;;15.94;74.72
12775;BME280;6451;42.630;23.382;2023-04-21T04:59:35;94004.09;;;15.65;75.09
12775;BME280;6451;42.630;23.382;2023-04-21T05:02:04;93998.69;;;15.97;74.72
12775;BME280;6451;42.630;23.382;2023-04-21T05:04:32;94008.41;;;15.77;75.42
12775;BME280;6451;42.630;23.382;2023-04-21T05:07:02;93990.84;;;15.85;73.98
12775;BME280;6451;42.630;23.382;2023-04-21T05:09:30;94015.50;;;16.10;73.87
12775;BME280;6451;42.630;23.382;2023-04-21T05:11:57;93986.97;;;16.39;72.16
12775;BME280;6451;42.630;23.382;2023-04-21T05:14:24;94005.75;;;16.91;70.92
12775;BME280;6451;42.630;23.382;2023-04-21T05:16:52;94022.97;;;16.38;71.41
12775;BME280;6451;42.630;23.382;2023-04-21T05:19:19;94013.22;;;16.76;71.22
12775;BME280;6451;42.630;23.382;2023-04-21T05:21:47;93973.69;;;16.70;69.74
12775;BME280;6451;42.630;23.382;2023-04-21T05:24:15;94002.94;;;17.23;69.59
12775;BME280;6451;42.630;23.382;2023-04-21T05:26:48;93996.53;;;17.55;68.58
12775;BME280;6451;42.630;23.382;2023-04-21T05:29:15;94002.63;;;16.85;69.00
12775;BME280;6451;42.630;23.382;2023-04-21T05:31:42;94010.41;;;17.15;69.49
12775;BME280;6451;42.630;23.382;2023-04-21T05:34:11;94008.91;;;16.79;70.47
12775;BME280;6451;42.630;23.382;2023-04-21T05:36:40;93996.38;;;16.81;69.54
12775;BME280;6451;42.630;23.382;2023-04-21T05:39:07;94015.16;;;16.44;71.27
12775;BME280;6451;42.630;23.382;2023-04-21T05:41:36;94001.03;;;17.02;69.60
12775;BME280;6451;42.630;23.382;2023-04-21T05:44:03;94015.94;;;16.83;70.56
12775;BME280;6451;42.630;23.382;2023-04-21T05:46:30;94019.81;;;17.14;69.87
12775;BME280;6451;42.630;23.382;2023-04-21T05:49:00;94014.31;;;17.21;69.37
12775;BME280;6451;42.630;23.382;2023-04-21T05:51:28;93984.81;;;17.47;68.40
12775;BME280;6451;42.630;23.382;2023-04-21T05:53:56;94009.31;;;17.97;67.54
12775;BME280;6451;42.630;23.382;2023-04-21T05:56:23;93993.09;;;17.36;68.38
12775;BME280;6451;42.630;23.382;2023-04-21T05:58:51;94011.19;;;17.19;69.25
12775;BME280;6451;42.630;23.382;2023-04-21T06:01:18;93990.22;;;17.75;66.98
12775;BME280;6451;42.630;23.382;2023-04-21T06:03:46;94013.47;;;17.32;68.91
12775;BME280;6451;42.630;23.382;2023-04-21T06:06:16;94005.97;;;17.50;68.92
12775;BME280;6451;42.630;23.382;2023-04-21T06:08:43;93999.78;;;17.35;69.00
12775;BME280;6451;42.630;23.382;2023-04-21T06:11:10;93986.69;;;17.68;68.10
12775;BME280;6451;42.630;23.382;2023-04-21T06:13:37;94000.03;;;17.73;66.85
12775;BME280;6451;42.630;23.382;2023-04-21T06:16:05;93995.34;;;17.59;68.51
12775;BME280;6451;42.630;23.382;2023-04-21T06:18:32;93998.84;;;17.74;68.47
12775;BME280;6451;42.630;23.382;2023-04-21T06:20:59;94011.91;;;17.31;69.58
12775;BME280;6451;42.630;23.382;2023-04-21T06:23:25;94005.69;;;17.27;69.44
12775;BME280;6451;42.630;23.382;2023-04-21T06:25:59;93988.69;;;17.60;68.93
12775;BME280;6451;42.630;23.382;2023-04-21T06:28:29;94009.28;;;18.00;68.00
12775;BME280;6451;42.630;23.382;2023-04-21T06:30:57;93990.53;;;17.88;67.59
12775;BME280;6451;42.630;23.382;2023-04-21T06:33:27;93992.25;;;17.57;68.78
12775;BME280;6451;42.630;23.382;2023-04-21T06:35:55;93996.50;;;17.62;68.39
12775;BME280;6451;42.630;23.382;2023-04-21T06:38:22;94001.31;;;17.43;68.45
12775;BME280;6451;42.630;23.382;2023-04-21T06:40:49;93987.38;;;17.86;68.29
12775;BME280;6451;42.630;23.382;2023-04-21T06:43:16;93997.03;;;18.68;66.83
12775;BME280;6451;42.630;23.382;2023-04-21T06:45:43;93997.63;;;17.82;68.02
12775;BME280;6451;42.630;23.382;2023-04-21T06:48:10;93998.84;;;17.74;67.90
12775;BME280;6451;42.630;23.382;2023-04-21T06:50:38;93994.25;;;18.19;67.53
12775;BME280;6451;42.630;23.382;2023-04-21T06:53:08;94001.00;;;17.16;69.81
12775;BME280;6451;42.630;23.382;2023-04-21T06:55:35;93992.22;;;17.71;68.96
12775;BME280;6451;42.630;23.382;2023-04-21T06:58:02;93978.84;;;17.70;68.23
12775;BME280;6451;42.630;23.382;2023-04-21T07:00:29;93992.53;;;17.81;67.72
12775;BME280;6451;42.630;23.382;2023-04-21T07:02:56;93984.69;;;17.83;67.51
12775;BME280;6451;42.630;23.382;2023-04-21T07:05:23;93998.00;;;17.88;67.11
12775;BME280;6451;42.630;23.382;2023-04-21T07:07:51;93962.84;;;17.54;67.59
12775;BME280;6451;42.630;23.382;2023-04-21T07:10:21;93990.13;;;17.86;67.14
12775;BME280;6451;42.630;23.382;2023-04-21T07:12:48;94000.09;;;17.48;67.41
12775;BME280;6451;42.630;23.382;2023-04-21T07:15:15;93990.63;;;17.74;67.88
12775;BME280;6451;42.630;23.382;2023-04-21T07:17:42;93990.94;;;17.83;67.56
12775;BME280;6451;42.630;23.382;2023-04-21T07:20:09;93990.25;;;17.65;67.99
12775;BME280;6451;42.630;23.382;2023-04-21T07:22:36;93970.53;;;18.43;66.50
12775;BME280;6451;42.630;23.382;2023-04-21T07:25:06;93988.81;;;18.12;67.56
12775;BME280;6451;42.630;23.382;2023-04-21T07:27:33;93990.22;;;18.34;66.66
12775;BME280;6451;42.630;23.382;2023-04-21T07:30:01;93990.50;;;18.47;66.75
12775;BME280;6451;42.630;23.382;2023-04-21T07:32:29;93994.19;;;18.78;65.50
12775;BME280;6451;42.630;23.382;2023-04-21T07:34:56;93994.66;;;18.73;64.75
12775;BME280;6451;42.630;23.382;2023-04-21T07:37:23;93957.81;;;19.05;63.86
12775;BME280;6451;42.630;23.382;2023-04-21T07:39:51;93981.97;;;18.86;63.07
12775;BME280;6451;42.630;23.382;2023-04-21T07:42:19;93981.38;;;19.06;63.70
12775;BME280;6451;42.630;23.382;2023-04-21T07:44:47;93976.72;;;18.99;62.86
12775;BME280;6451;42.630;23.382;2023-04-21T07:47:17;93997.75;;;18.75;63.29
12775;BME280;6451;42.630;23.382;2023-04-21T07:49:44;93990.84;;;18.53;63.62
12775;BME280;6451;42.630;23.382;2023-04-21T07:52:11;93992.34;;;18.65;63.16
12775;BME280;6451;42.630;23.382;2023-04-21T07:54:38;93990.66;;;18.78;63.41
12775;BME280;6451;42.630;23.382;2023-04-21T07:57:05;93950.00;;;18.55;62.48
12775;BME280;6451;42.630;23.382;2023-04-21T07:59:34;94000.81;;;18.88;62.63
12775;BME280;6451;42.630;23.382;2023-04-21T08:02:02;93992.72;;;19.08;62.38
12775;BME280;6451;42.630;23.382;2023-04-21T08:04:28;93980.78;;;18.87;62.82
12775;BME280;6451;42.630;23.382;2023-04-21T08:06:55;94004.56;;;19.01;61.82
12775;BME280;6451;42.630;23.382;2023-04-21T08:09:23;93994.97;;;19.54;60.49
12775;BME280;6451;42.630;23.382;2023-04-21T08:11:49;93992.75;;;19.76;58.98
12775;BME280;6451;42.630;23.382;2023-04-21T08:14:17;93983.47;;;19.93;57.97
12775;BME280;6451;42.630;23.382;2023-04-21T08:16:45;93988.69;;;19.88;57.98
12775;BME280;6451;42.630;23.382;2023-04-21T08:19:12;93980.34;;;19.64;58.48
12775;BME280;6451;42.630;23.382;2023-04-21T08:21:39;93974.06;;;19.64;58.99
12775;BME280;6451;42.630;23.382;2023-04-21T08:26:41;93982.66;;;19.66;58.66
12775;BME280;6451;42.630;23.382;2023-04-21T08:29:07;93957.63;;;20.38;57.26
12775;BME280;6451;42.630;23.382;2023-04-21T08:31:35;93961.38;;;20.24;57.03
12775;BME280;6451;42.630;23.382;2023-04-21T08:34:03;93975.97;;;20.24;56.75
12775;BME280;6451;42.630;23.382;2023-04-21T08:36:30;93967.63;;;19.74;56.98
12775;BME280;6451;42.630;23.382;2023-04-21T08:38:57;93990.81;;;19.39;58.34
12775;BME280;6451;42.630;23.382;2023-04-21T08:41:24;93986.97;;;19.33;58.84
12775;BME280;6451;42.630;23.382;2023-04-21T08:43:51;93973.53;;;19.38;58.62
12775;BME280;6451;42.630;23.382;2023-04-21T08:46:18;93964.69;;;20.39;57.27
12775;BME280;6451;42.630;23.382;2023-04-21T08:48:46;93950.78;;;20.49;55.71
12775;BME280;6451;42.630;23.382;2023-04-21T08:51:21;93967.09;;;20.64;56.48
12775;BME280;6451;42.630;23.382;2023-04-21T08:53:49;93988.31;;;20.13;57.56
12775;BME280;6451;42.630;23.382;2023-04-21T08:56:16;93966.25;;;19.59;57.71
12775;BME280;6451;42.630;23.382;2023-04-21T08:58:43;93964.09;;;20.27;55.35
12775;BME280;6451;42.630;23.382;2023-04-21T09:01:10;93976.38;;;19.65;56.70
12775;BME280;6451;42.630;23.382;2023-04-21T09:03:38;93963.44;;;19.62;56.74
12775;BME280;6451;42.630;23.382;2023-04-21T09:06:07;93972.78;;;19.99;56.31
12775;BME280;6451;42.630;23.382;2023-04-21T09:08:37;93905.19;;;19.94;56.50
12775;BME280;6451;42.630;23.382;2023-04-21T09:11:05;93960.84;;;20.60;55.89
12775;BME280;6451;42.630;23.382;2023-04-21T09:13:34;93955.19;;;20.43;55.62
12775;BME280;6451;42.630;23.382;2023-04-21T09:16:03;93885.81;;;20.25;55.24
12775;BME280;6451;42.630;23.382;2023-04-21T09:18:32;93951.03;;;20.82;54.89
12775;BME280;6451;42.630;23.382;2023-04-21T09:21:07;93951.53;;;20.97;54.90
12775;BME280;6451;42.630;23.382;2023-04-21T09:23:43;93942.31;;;20.83;52.56
12775;BME280;6451;42.630;23.382;2023-04-21T09:26:11;93948.47;;;20.91;52.51
12775;BME280;6451;42.630;23.382;2023-04-21T09:28:44;93938.56;;;21.37;51.97
12775;BME280;6451;42.630;23.382;2023-04-21T09:31:13;93882.31;;;21.11;51.87
12775;BME280;6451;42.630;23.382;2023-04-21T09:33:46;93942.75;;;21.25;51.29
12775;BME280;6451;42.630;23.382;2023-04-21T09:36:23;93939.44;;;21.34;52.27
12775;BME280;6451;42.630;23.382;2023-04-21T09:39:01;93945.69;;;20.95;52.63
12775;BME280;6451;42.630;23.382;2023-04-21T09:41:29;93945.69;;;20.95;52.72
12775;BME280;6451;42.630;23.382;2023-04-21T09:43:56;93925.75;;;21.47;50.83
12775;BME280;6451;42.630;23.382;2023-04-21T09:46:27;93943.13;;;21.47;50.61
12775;BME280;6451;42.630;23.382;2023-04-21T09:48:55;93936.25;;;21.35;50.60
12775;BME280;6451;42.630;23.382;2023-04-21T09:51:26;93936.72;;;21.70;49.83
12775;BME280;6451;42.630;23.382;2023-04-21T09:53:58;93886.28;;;22.02;48.58
12775;BME280;6451;42.630;23.382;2023-04-21T09:56:28;93904.34;;;22.88;46.82
12775;BME280;6451;42.630;23.382;2023-04-21T09:59:00;93920.59;;;23.15;45.89
12775;BME280;6451;42.630;23.382;2023-04-21T10:01:28;93916.53;;;23.20;44.49
12775;BME280;6451;42.630;23.382;2023-04-21T10:04:02;93920.66;;;21.45;46.63
12775;BME280;6451;42.630;23.382;2023-04-21T10:06:29;93922.44;;;21.55;46.45
12775;BME280;6451;42.630;23.382;2023-04-21T10:08:56;93921.59;;;21.38;47.56
12775;BME280;6451;42.630;23.382;2023-04-21T10:11:26;93914.00;;;21.03;48.83
12775;BME280;6451;42.630;23.382;2023-04-21T10:13:53;93905.38;;;21.77;47.05
12775;BME280;6451;42.630;23.382;2023-04-21T10:16:20;93909.66;;;21.61;47.02
12775;BME280;6451;42.630;23.382;2023-04-21T10:18:47;93921.97;;;22.29;46.22
12775;BME280;6451;42.630;23.382;2023-04-21T10:21:17;93912.34;;;22.83;44.53
12775;BME280;6451;42.630;23.382;2023-04-21T10:23:47;93924.25;;;21.02;47.01
12775;BME280;6451;42.630;23.382;2023-04-21T10:26:19;93893.31;;;21.71;46.14
12775;BME280;6451;42.630;23.382;2023-04-21T10:28:52;93925.88;;;22.48;45.27
12775;BME280;6451;42.630;23.382;2023-04-21T10:31:30;93866.47;;;20.95;47.33
12775;BME280;6451;42.630;23.382;2023-04-21T10:34:34;93900.56;;;21.64;46.49
12775;BME280;6451;42.630;23.382;2023-04-21T10:37:10;93911.44;;;21.12;49.21
12775;BME280;6451;42.630;23.382;2023-04-21T10:39:45;93906.91;;;21.22;49.43
12775;BME280;6451;42.630;23.382;2023-04-21T10:42:21;93917.63;;;20.76;50.73
12775;BME280;6451;42.630;23.382;2023-04-21T10:45:10;93910.66;;;20.48;54.11
12775;BME280;6451;42.630;23.382;2023-04-21T10:47:39;93920.22;;;19.59;57.12
12775;BME280;6451;42.630;23.382;2023-04-21T10:50:28;93919.34;;;20.43;57.41
12775;BME280;6451;42.630;23.382;2023-04-21T10:52:58;93917.41;;;20.67;55.29
12775;BME280;6451;42.630;23.382;2023-04-21T10:55:26;93929.38;;;20.07;54.92
12775;BME280;6451;42.630;23.382;2023-04-21T10:57:54;93909.63;;;20.12;54.53
12775;BME280;6451;42.630;23.382;2023-04-21T11:00:23;93925.31;;;20.15;55.42
12775;BME280;6451;42.630;23.382;2023-04-21T11:02:55;93921.94;;;20.54;53.64
12775;BME280;6451;42.630;23.382;2023-04-21T11:05:34;93923.34;;;20.66;53.61
12775;BME280;6451;42.630;23.382;2023-04-21T11:08:04;93926.28;;;21.42;51.98
12775;BME280;6451;42.630;23.382;2023-04-21T11:10:50;93915.66;;;20.53;52.63
12775;BME280;6451;42.630;23.382;2023-04-21T11:13:20;93909.81;;;20.51;52.06
12775;BME280;6451;42.630;23.382;2023-04-21T11:16:00;93904.66;;;21.56;50.77
12775;BME280;6451;42.630;23.382;2023-04-21T11:18:36;93907.56;;;21.09;50.17
12775;BME280;6451;42.630;23.382;2023-04-21T11:21:11;93902.44;;;21.68;49.66
12775;BME280;6451;42.630;23.382;2023-04-21T11:23:40;93894.03;;;21.15;49.17
12775;BME280;6451;42.630;23.382;2023-04-21T11:26:07;93894.97;;;21.48;49.91
12775;BME280;6451;42.630;23.382;2023-04-21T11:28:34;93912.84;;;21.80;49.23
12775;BME280;6451;42.630;23.382;2023-04-21T11:31:03;93910.25;;;22.41;49.92
12775;BME280;6451;42.630;23.382;2023-04-21T11:33:35;93913.91;;;22.02;50.30
12775;BME280;6451;42.630;23.382;2023-04-21T11:36:03;93903.94;;;21.52;51.52
12775;BME280;6451;42.630;23.382;2023-04-21T11:38:36;93902.00;;;21.33;52.27
12775;BME280;6451;42.630;23.382;2023-04-21T11:41:03;93907.34;;;21.60;52.05
12775;BME280;6451;42.630;23.382;2023-04-21T11:43:30;93917.81;;;21.09;53.25
12775;BME280;6451;42.630;23.382;2023-04-21T11:46:17;93904.09;;;21.45;52.25
12775;BME280;6451;42.630;23.382;2023-04-21T11:48:44;93899.09;;;22.29;50.88
12775;BME280;6451;42.630;23.382;2023-04-21T11:51:15;93904.19;;;21.42;50.08
12775;BME280;6451;42.630;23.382;2023-04-21T11:53:46;93914.84;;;21.20;51.38
12775;BME280;6451;42.630;23.382;2023-04-21T11:56:16;93909.56;;;20.15;53.21
12775;BME280;6451;42.630;23.382;2023-04-21T11:58:44;93934.03;;;19.86;55.27
12775;BME280;6451;42.630;23.382;2023-04-21T12:01:14;93920.81;;;20.01;55.30
12775;BME280;6451;42.630;23.382;2023-04-21T12:03:50;93899.16;;;20.03;54.63
12775;BME280;6451;42.630;23.382;2023-04-21T12:06:21;93905.28;;;20.38;53.66
12775;BME280;6451;42.630;23.382;2023-04-21T12:08:54;93903.69;;;20.64;53.04
12775;BME280;6451;42.630;23.382;2023-04-21T12:11:22;93907.16;;;20.68;52.70
12775;BME280;6451;42.630;23.382;2023-04-21T12:13:49;93911.41;;;20.92;52.33
12775;BME280;6451;42.630;23.382;2023-04-21T12:16:18;93907.34;;;20.57;51.27
12775;BME280;6451;42.630;23.382;2023-04-21T12:18:47;93878.34;;;21.52;49.15
12775;BME280;6451;42.630;23.382;2023-04-21T12:21:14;93899.81;;;21.80;47.27
12775;BME280;6451;42.630;23.382;2023-04-21T12:23:41;93895.81;;;21.05;47.05
12775;BME280;6451;42.630;23.382;2023-04-21T12:26:09;93919.47;;;20.63;47.13
12775;BME280;6451;42.630;23.382;2023-04-21T12:28:36;93907.94;;;20.45;47.79
12775;BME280;6451;42.630;23.382;2023-04-21T12:31:04;93918.41;;;20.77;47.54
12775;BME280;6451;42.630;23.382;2023-04-21T12:33:32;93930.84;;;20.85;46.80
12775;BME280;6451;42.630;23.382;2023-04-21T12:35:59;93920.22;;;20.64;46.07
12775;BME280;6451;42.630;23.382;2023-04-21T12:38:26;93923.75;;;20.88;46.23
12775;BME280;6451;42.630;23.382;2023-04-21T12:40:53;93913.44;;;21.12;46.06
12775;BME280;6451;42.630;23.382;2023-04-21T12:43:20;93897.94;;;21.37;46.08
12775;BME280;6451;42.630;23.382;2023-04-21T12:45:47;93900.81;;;22.23;45.25
12775;BME280;6451;42.630;23.382;2023-04-21T12:48:14;93900.06;;;23.29;43.99
12775;BME280;6451;42.630;23.382;2023-04-21T12:50:43;93896.56;;;23.12;43.95
12775;BME280;6451;42.630;23.382;2023-04-21T12:53:11;93885.16;;;23.10;43.52
12775;BME280;6451;42.630;23.382;2023-04-21T12:55:38;93910.75;;;22.36;44.20
12775;BME280;6451;42.630;23.382;2023-04-21T12:58:05;93905.31;;;21.24;46.34
12775;BME280;6451;42.630;23.382;2023-04-21T13:00:32;93901.13;;;20.96;46.86
12775;BME280;6451;42.630;23.382;2023-04-21T13:03:00;93901.47;;;20.78;47.71
12775;BME280;6451;42.630;23.382;2023-04-21T13:05:27;93900.13;;;20.87;48.35
12775;BME280;6451;42.630;23.382;2023-04-21T13:07:55;93905.81;;;20.76;47.71
12775;BME280;6451;42.630;23.382;2023-04-21T13:10:23;93889.53;;;21.25;46.89